sensor_id;sensor_type;location;lat;lon;timestamp;temperature;humidity
21184;DHT22;18176;49.502;11.754;2023-07-13T00:02:12;20.80;99.90
21184;DHT22;18176;49.502;11.754;2023-07-13T00:06:15;20.70;99.90
21184;DHT22;18176;49.502;11.754;2023-07-13T00:10:17;20.60;99.90
21184;DHT22;18176;49.502;11.754;2023-07-13T00:14:18;20.60;99.90
21184;DHT22;18176;49.502;11.754;2023-07-13T00:18:19;20.50;99.90
21184;DHT22;18176;49.502;11.754;2023-07-13T00:22:22;20.40;99.90
21184;DHT22;18176;49.502;11.754;2023-07-13T00:26:23;20.40;99.90
21184;DHT22;18176;49.502;11.754;2023-07-13T00:30:23;20.30;99.90
21184;DHT22;18176;49.502;11.754;2023-07-13T00:34:24;20.30;99.90
21184;DHT22;18176;49.502;11.754;2023-07-13T00:38:26;20.30;99.90
21184;DHT22;18176;49.502;11.754;2023-07-13T00:42:27;20.20;99.90
21184;DHT22;18176;49.502;11.754;2023-07-13T00:46:28;20.10;99.90
21184;DHT22;18176;49.502;11.754;2023-07-13T00:50:35;20.10;99.90
21184;DHT22;18176;49.502;11.754;2023-07-13T00:54:41;20.10;99.90
21184;DHT22;18176;49.502;11.754;2023-07-13T00:58:45;20.10;99.90
21184;DHT22;18176;49.502;11.754;2023-07-13T01:02:48;20.10;99.90
21184;DHT22;18176;49.502;11.754;2023-07-13T01:06:49;20.00;99.90
21184;DHT22;18176;49.502;11.754;2023-07-13T01:10:54;19.90;99.90
21184;DHT22;18176;49.502;11.754;2023-07-13T01:14:57;19.80;99.90
21184;DHT22;18176;49.502;11.754;2023-07-13T01:18:58;19.70;99.90
21184;DHT22;18176;49.502;11.754;2023-07-13T01:23:03;19.60;99.90
21184;DHT22;18176;49.502;11.754;2023-07-13T01:27:06;19.60;99.90
21184;DHT22;18176;49.502;11.754;2023-07-13T01:31:10;19.50;99.90
21184;DHT22;18176;49.502;11.754;2023-07-13T01:35:11;19.50;99.90
21184;DHT22;18176;49.502;11.754;2023-07-13T01:39:16;19.50;99.90
21184;DHT22;18176;49.502;11.754;2023-07-13T01:43:17;19.50;99.90
21184;DHT22;18176;49.502;11.754;2023-07-13T01:47:18;19.40;99.90
21184;DHT22;18176;49.502;11.754;2023-07-13T01:51:19;19.30;99.90
21184;DHT22;18176;49.502;11.754;2023-07-13T01:55:23;19.30;99.90
21184;DHT22;18176;49.502;11.754;2023-07-13T01:59:23;19.30;99.90
21184;DHT22;18176;49.502;11.754;2023-07-13T02:03:23;19.20;99.90
21184;DHT22;18176;49.502;11.754;2023-07-13T02:07:23;19.20;99.90
21184;DHT22;18176;49.502;11.754;2023-07-13T02:11:26;19.10;99.90
21184;DHT22;18176;49.502;11.754;2023-07-13T02:15:29;19.10;99.90
21184;DHT22;18176;49.502;11.754;2023-07-13T02:19:30;18.90;99.90
21184;DHT22;18176;49.502;11.754;2023-07-13T02:23:30;18.80;99.90
21184;DHT22;18176;49.502;11.754;2023-07-13T02:27:33;18.80;99.90
21184;DHT22;18176;49.502;11.754;2023-07-13T02:31:33;18.70;99.90
21184;DHT22;18176;49.502;11.754;2023-07-13T02:35:33;18.60;99.90
21184;DHT22;18176;49.502;11.754;2023-07-13T02:39:34;18.60;99.90
21184;DHT22;18176;49.502;11.754;2023-07-13T02:43:37;18.60;99.90
21184;DHT22;18176;49.502;11.754;2023-07-13T02:47:40;18.50;99.90
21184;DHT22;18176;49.502;11.754;2023-07-13T02:51:41;18.50;99.90
21184;DHT22;18176;49.502;11.754;2023-07-13T02:55:41;18.40;99.90
21184;DHT22;18176;49.502;11.754;2023-07-13T02:59:47;18.30;99.90
21184;DHT22;18176;49.502;11.754;2023-07-13T03:03:47;18.20;99.90
21184;DHT22;18176;49.502;11.754;2023-07-13T03:07:48;18.10;99.90
21184;DHT22;18176;49.502;11.754;2023-07-13T03:11:52;18.00;99.90
21184;DHT22;18176;49.502;11.754;2023-07-13T03:16:00;17.90;99.90
21184;DHT22;18176;49.502;11.754;2023-07-13T03:20:01;17.80;99.90
21184;DHT22;18176;49.502;11.754;2023-07-13T03:24:01;17.70;99.90
21184;DHT22;18176;49.502;11.754;2023-07-13T03:28:02;17.60;99.90
21184;DHT22;18176;49.502;11.754;2023-07-13T03:32:06;17.50;99.90
21184;DHT22;18176;49.502;11.754;2023-07-13T03:36:11;17.40;99.90
21184;DHT22;18176;49.502;11.754;2023-07-13T03:40:16;17.40;99.90
21184;DHT22;18176;49.502;11.754;2023-07-13T03:44:17;17.50;99.90
21184;DHT22;18176;49.502;11.754;2023-07-13T03:48:25;17.40;99.90
21184;DHT22;18176;49.502;11.754;2023-07-13T03:52:26;17.40;99.90
21184;DHT22;18176;49.502;11.754;2023-07-13T03:56:26;17.50;99.90
21184;DHT22;18176;49.502;11.754;2023-07-13T04:00:27;17.50;99.90
21184;DHT22;18176;49.502;11.754;2023-07-13T04:04:30;17.40;99.90
21184;DHT22;18176;49.502;11.754;2023-07-13T04:08:32;17.50;99.90
21184;DHT22;18176;49.502;11.754;2023-07-13T04:12:35;17.60;99.90
21184;DHT22;18176;49.502;11.754;2023-07-13T04:16:35;17.70;99.90
21184;DHT22;18176;49.502;11.754;2023-07-13T04:20:38;17.80;99.90
21184;DHT22;18176;49.502;11.754;2023-07-13T04:24:39;17.80;99.90
21184;DHT22;18176;49.502;11.754;2023-07-13T04:28:39;17.80;99.90
21184;DHT22;18176;49.502;11.754;2023-07-13T04:32:39;17.90;99.90
21184;DHT22;18176;49.502;11.754;2023-07-13T04:36:42;17.90;99.90
21184;DHT22;18176;49.502;11.754;2023-07-13T04:40:42;18.00;99.90
21184;DHT22;18176;49.502;11.754;2023-07-13T04:44:47;18.00;99.90
21184;DHT22;18176;49.502;11.754;2023-07-13T04:48:49;18.10;99.90
21184;DHT22;18176;49.502;11.754;2023-07-13T04:52:53;18.10;99.90
21184;DHT22;18176;49.502;11.754;2023-07-13T04:56:54;18.10;99.90
21184;DHT22;18176;49.502;11.754;2023-07-13T05:00:59;18.00;99.90
21184;DHT22;18176;49.502;11.754;2023-07-13T05:05:00;17.90;99.90
21184;DHT22;18176;49.502;11.754;2023-07-13T05:09:03;17.80;99.90
21184;DHT22;18176;49.502;11.754;2023-07-13T05:13:04;17.80;99.90
21184;DHT22;18176;49.502;11.754;2023-07-13T05:17:04;17.80;99.90
21184;DHT22;18176;49.502;11.754;2023-07-13T05:21:07;17.80;99.90
21184;DHT22;18176;49.502;11.754;2023-07-13T05:25:12;17.90;99.90
21184;DHT22;18176;49.502;11.754;2023-07-13T05:29:13;18.00;99.90
21184;DHT22;18176;49.502;11.754;2023-07-13T05:33:13;18.10;99.90
21184;DHT22;18176;49.502;11.754;2023-07-13T05:37:13;18.20;99.90
21184;DHT22;18176;49.502;11.754;2023-07-13T05:41:16;18.30;99.90
21184;DHT22;18176;49.502;11.754;2023-07-13T05:45:16;18.40;99.90
21184;DHT22;18176;49.502;11.754;2023-07-13T05:49:17;18.50;99.90
21184;DHT22;18176;49.502;11.754;2023-07-13T05:53:17;18.50;99.90
21184;DHT22;18176;49.502;11.754;2023-07-13T05:57:20;18.40;99.90
21184;DHT22;18176;49.502;11.754;2023-07-13T06:01:20;18.50;99.90
21184;DHT22;18176;49.502;11.754;2023-07-13T06:05:20;18.60;99.90
21184;DHT22;18176;49.502;11.754;2023-07-13T06:09:21;18.80;99.90
21184;DHT22;18176;49.502;11.754;2023-07-13T06:13:24;19.10;99.90
21184;DHT22;18176;49.502;11.754;2023-07-13T06:17:24;19.30;99.90
21184;DHT22;18176;49.502;11.754;2023-07-13T06:21:24;19.30;99.90
21184;DHT22;18176;49.502;11.754;2023-07-13T06:25:26;19.20;99.90
21184;DHT22;18176;49.502;11.754;2023-07-13T06:29:29;19.20;99.90
21184;DHT22;18176;49.502;11.754;2023-07-13T06:33:29;19.30;99.90
21184;DHT22;18176;49.502;11.754;2023-07-13T06:37:30;19.50;99.90
21184;DHT22;18176;49.502;11.754;2023-07-13T06:41:30;19.70;99.90
21184;DHT22;18176;49.502;11.754;2023-07-13T06:45:40;19.60;99.90
21184;DHT22;18176;49.502;11.754;2023-07-13T06:49:42;19.80;99.90
21184;DHT22;18176;49.502;11.754;2023-07-13T06:53:42;19.70;99.90
21184;DHT22;18176;49.502;11.754;2023-07-13T06:57:43;19.90;99.90
21184;DHT22;18176;49.502;11.754;2023-07-13T07:01:46;20.20;99.90
21184;DHT22;18176;49.502;11.754;2023-07-13T07:05:46;20.20;99.90
21184;DHT22;18176;49.502;11.754;2023-07-13T07:09:46;20.20;99.90
21184;DHT22;18176;49.502;11.754;2023-07-13T07:13:46;20.30;99.90
21184;DHT22;18176;49.502;11.754;2023-07-13T07:17:49;20.80;99.90
21184;DHT22;18176;49.502;11.754;2023-07-13T07:21:50;20.90;99.90
21184;DHT22;18176;49.502;11.754;2023-07-13T07:25:50;20.80;99.90
21184;DHT22;18176;49.502;11.754;2023-07-13T07:29:50;21.00;99.90
21184;DHT22;18176;49.502;11.754;2023-07-13T07:34:13;21.00;99.90
21184;DHT22;18176;49.502;11.754;2023-07-13T07:38:13;21.00;99.90
21184;DHT22;18176;49.502;11.754;2023-07-13T07:42:14;20.90;99.90
21184;DHT22;18176;49.502;11.754;2023-07-13T07:46:26;21.00;99.90
21184;DHT22;18176;49.502;11.754;2023-07-13T07:50:36;21.00;99.90
21184;DHT22;18176;49.502;11.754;2023-07-13T07:54:41;20.90;99.90
21184;DHT22;18176;49.502;11.754;2023-07-13T07:58:56;20.70;99.90
21184;DHT22;18176;49.502;11.754;2023-07-13T08:03:07;20.70;99.90
21184;DHT22;18176;49.502;11.754;2023-07-13T08:07:13;20.90;99.90
21184;DHT22;18176;49.502;11.754;2023-07-13T08:11:14;21.10;99.90
21184;DHT22;18176;49.502;11.754;2023-07-13T08:15:17;21.20;99.90
21184;DHT22;18176;49.502;11.754;2023-07-13T08:19:19;22.50;99.90
21184;DHT22;18176;49.502;11.754;2023-07-13T08:23:22;24.00;99.90
21184;DHT22;18176;49.502;11.754;2023-07-13T08:27:23;24.60;99.90
21184;DHT22;18176;49.502;11.754;2023-07-13T08:31:25;24.00;99.90
21184;DHT22;18176;49.502;11.754;2023-07-13T08:35:25;22.90;99.90
21184;DHT22;18176;49.502;11.754;2023-07-13T08:39:29;22.90;99.90
21184;DHT22;18176;49.502;11.754;2023-07-13T08:43:33;23.60;99.90
21184;DHT22;18176;49.502;11.754;2023-07-13T08:47:38;24.10;99.90
21184;DHT22;18176;49.502;11.754;2023-07-13T08:51:42;24.70;98.70
21184;DHT22;18176;49.502;11.754;2023-07-13T08:55:52;25.10;99.10
21184;DHT22;18176;49.502;11.754;2023-07-13T08:59:58;25.80;95.10
21184;DHT22;18176;49.502;11.754;2023-07-13T09:04:03;25.80;92.40
21184;DHT22;18176;49.502;11.754;2023-07-13T09:08:42;25.50;92.90
21184;DHT22;18176;49.502;11.754;2023-07-13T09:13:01;25.30;91.80
21184;DHT22;18176;49.502;11.754;2023-07-13T09:17:17;25.40;91.00
21184;DHT22;18176;49.502;11.754;2023-07-13T09:21:28;26.00;88.90
21184;DHT22;18176;49.502;11.754;2023-07-13T09:25:33;25.70;87.50
21184;DHT22;18176;49.502;11.754;2023-07-13T09:29:41;25.60;87.40
21184;DHT22;18176;49.502;11.754;2023-07-13T09:33:46;24.90;89.00
21184;DHT22;18176;49.502;11.754;2023-07-13T09:37:48;25.00;90.40
21184;DHT22;18176;49.502;11.754;2023-07-13T09:41:54;25.40;90.50
21184;DHT22;18176;49.502;11.754;2023-07-13T09:46:02;26.00;90.60
21184;DHT22;18176;49.502;11.754;2023-07-13T09:50:05;26.10;88.10
21184;DHT22;18176;49.502;11.754;2023-07-13T09:54:22;25.40;80.30
21184;DHT22;18176;49.502;11.754;2023-07-13T09:58:27;24.90;83.10
21184;DHT22;18176;49.502;11.754;2023-07-13T10:02:33;24.80;83.70
21184;DHT22;18176;49.502;11.754;2023-07-13T10:06:35;25.40;81.90
21184;DHT22;18176;49.502;11.754;2023-07-13T10:10:38;25.00;81.70
21184;DHT22;18176;49.502;11.754;2023-07-13T10:14:38;24.90;79.80
21184;DHT22;18176;49.502;11.754;2023-07-13T10:18:46;24.40;82.40
21184;DHT22;18176;49.502;11.754;2023-07-13T10:22:52;24.80;81.70
21184;DHT22;18176;49.502;11.754;2023-07-13T10:27:01;25.80;79.40
21184;DHT22;18176;49.502;11.754;2023-07-13T10:31:15;26.10;75.00
21184;DHT22;18176;49.502;11.754;2023-07-13T10:35:20;25.90;76.20
21184;DHT22;18176;49.502;11.754;2023-07-13T10:39:26;26.50;75.60
21184;DHT22;18176;49.502;11.754;2023-07-13T10:43:31;26.80;70.20
21184;DHT22;18176;49.502;11.754;2023-07-13T10:47:36;27.20;66.80
21184;DHT22;18176;49.502;11.754;2023-07-13T10:51:41;28.20;64.90
21184;DHT22;18176;49.502;11.754;2023-07-13T10:55:55;27.90;64.00
21184;DHT22;18176;49.502;11.754;2023-07-13T11:00:15;27.20;63.80
21184;DHT22;18176;49.502;11.754;2023-07-13T11:04:19;27.40;63.10
21184;DHT22;18176;49.502;11.754;2023-07-13T11:08:34;27.10;63.80
21184;DHT22;18176;49.502;11.754;2023-07-13T11:12:50;28.10;63.40
21184;DHT22;18176;49.502;11.754;2023-07-13T11:16:52;28.40;59.00
21184;DHT22;18176;49.502;11.754;2023-07-13T11:21:14;28.40;57.80
21184;DHT22;18176;49.502;11.754;2023-07-13T11:25:31;27.80;58.90
21184;DHT22;18176;49.502;11.754;2023-07-13T11:29:37;27.50;59.20
21184;DHT22;18176;49.502;11.754;2023-07-13T11:33:59;27.00;59.50
21184;DHT22;18176;49.502;11.754;2023-07-13T11:38:01;27.40;57.80
21184;DHT22;18176;49.502;11.754;2023-07-13T11:42:09;28.20;57.50
21184;DHT22;18176;49.502;11.754;2023-07-13T11:46:13;28.30;58.50
21184;DHT22;18176;49.502;11.754;2023-07-13T11:50:19;28.30;56.40
21184;DHT22;18176;49.502;11.754;2023-07-13T11:54:24;27.80;58.10
21184;DHT22;18176;49.502;11.754;2023-07-13T11:58:30;27.90;56.50
21184;DHT22;18176;49.502;11.754;2023-07-13T12:02:33;27.30;57.10
21184;DHT22;18176;49.502;11.754;2023-07-13T12:06:37;27.30;56.60
21184;DHT22;18176;49.502;11.754;2023-07-13T12:10:40;26.70;59.30
21184;DHT22;18176;49.502;11.754;2023-07-13T12:14:51;26.60;60.60
21184;DHT22;18176;49.502;11.754;2023-07-13T12:18:53;28.20;57.80
21184;DHT22;18176;49.502;11.754;2023-07-13T12:22:54;28.20;56.60
21184;DHT22;18176;49.502;11.754;2023-07-13T12:26:59;28.40;57.50
21184;DHT22;18176;49.502;11.754;2023-07-13T12:31:06;28.10;56.60
21184;DHT22;18176;49.502;11.754;2023-07-13T12:35:20;27.50;57.80
21184;DHT22;18176;49.502;11.754;2023-07-13T12:39:22;27.70;56.70
21184;DHT22;18176;49.502;11.754;2023-07-13T12:43:25;27.10;57.60
21184;DHT22;18176;49.502;11.754;2023-07-13T12:47:29;28.00;56.50
21184;DHT22;18176;49.502;11.754;2023-07-13T12:51:31;28.80;56.70
21184;DHT22;18176;49.502;11.754;2023-07-13T12:55:31;29.20;55.40
21184;DHT22;18176;49.502;11.754;2023-07-13T12:59:40;28.80;56.00
21184;DHT22;18176;49.502;11.754;2023-07-13T13:03:46;28.80;55.20
21184;DHT22;18176;49.502;11.754;2023-07-13T13:07:50;28.30;56.50
21184;DHT22;18176;49.502;11.754;2023-07-13T13:11:50;28.40;56.00
21184;DHT22;18176;49.502;11.754;2023-07-13T13:15:51;28.90;56.60
21184;DHT22;18176;49.502;11.754;2023-07-13T13:19:54;29.70;55.00
21184;DHT22;18176;49.502;11.754;2023-07-13T13:23:54;28.50;55.50
21184;DHT22;18176;49.502;11.754;2023-07-13T13:27:55;27.50;57.00
21184;DHT22;18176;49.502;11.754;2023-07-13T13:31:55;28.00;56.60
21184;DHT22;18176;49.502;11.754;2023-07-13T13:35:59;28.30;57.80
21184;DHT22;18176;49.502;11.754;2023-07-13T13:40:00;29.00;56.80
21184;DHT22;18176;49.502;11.754;2023-07-13T13:44:09;28.90;57.00
21184;DHT22;18176;49.502;11.754;2023-07-13T13:48:15;28.20;57.60
21184;DHT22;18176;49.502;11.754;2023-07-13T13:52:22;27.20;57.80
21184;DHT22;18176;49.502;11.754;2023-07-13T13:56:24;26.90;59.90
21184;DHT22;18176;49.502;11.754;2023-07-13T14:00:24;27.00;58.90
21184;DHT22;18176;49.502;11.754;2023-07-13T14:04:24;26.90;59.50
21184;DHT22;18176;49.502;11.754;2023-07-13T14:08:27;27.10;58.90
21184;DHT22;18176;49.502;11.754;2023-07-13T14:12:28;27.30;59.20
21184;DHT22;18176;49.502;11.754;2023-07-13T14:16:30;26.70;59.80
21184;DHT22;18176;49.502;11.754;2023-07-13T14:20:33;26.50;60.70
21184;DHT22;18176;49.502;11.754;2023-07-13T14:24:36;27.60;58.90
21184;DHT22;18176;49.502;11.754;2023-07-13T14:28:37;28.60;58.00
21184;DHT22;18176;49.502;11.754;2023-07-13T14:32:41;27.90;58.00
21184;DHT22;18176;49.502;11.754;2023-07-13T14:36:44;28.90;57.70
21184;DHT22;18176;49.502;11.754;2023-07-13T14:40:50;29.20;55.70
21184;DHT22;18176;49.502;11.754;2023-07-13T14:44:50;28.70;57.10
21184;DHT22;18176;49.502;11.754;2023-07-13T14:48:52;28.40;57.60
21184;DHT22;18176;49.502;11.754;2023-07-13T14:52:58;29.10;57.60
21184;DHT22;18176;49.502;11.754;2023-07-13T14:57:01;29.00;56.70
21184;DHT22;18176;49.502;11.754;2023-07-13T15:01:03;29.20;57.10
21184;DHT22;18176;49.502;11.754;2023-07-13T15:05:11;29.00;56.60
21184;DHT22;18176;49.502;11.754;2023-07-13T15:09:13;29.40;56.70
21184;DHT22;18176;49.502;11.754;2023-07-13T15:13:18;30.60;56.00
21184;DHT22;18176;49.502;11.754;2023-07-13T15:17:25;30.10;54.80
21184;DHT22;18176;49.502;11.754;2023-07-13T15:21:31;30.00;54.90
21184;DHT22;18176;49.502;11.754;2023-07-13T15:25:33;29.10;55.40
21184;DHT22;18176;49.502;11.754;2023-07-13T15:29:36;28.30;56.50
21184;DHT22;18176;49.502;11.754;2023-07-13T15:33:40;27.80;58.00
21184;DHT22;18176;49.502;11.754;2023-07-13T15:37:40;27.90;57.10
21184;DHT22;18176;49.502;11.754;2023-07-13T15:41:44;27.00;59.30
21184;DHT22;18176;49.502;11.754;2023-07-13T15:45:50;26.70;58.80
21184;DHT22;18176;49.502;11.754;2023-07-13T15:49:50;27.00;59.00
21184;DHT22;18176;49.502;11.754;2023-07-13T15:53:53;27.60;58.60
21184;DHT22;18176;49.502;11.754;2023-07-13T15:57:55;27.70;57.90
21184;DHT22;18176;49.502;11.754;2023-07-13T16:01:58;27.50;58.10
21184;DHT22;18176;49.502;11.754;2023-07-13T16:05:59;27.90;57.20
21184;DHT22;18176;49.502;11.754;2023-07-13T16:10:00;28.10;56.20
21184;DHT22;18176;49.502;11.754;2023-07-13T16:14:01;27.40;57.80
21184;DHT22;18176;49.502;11.754;2023-07-13T16:18:05;28.00;56.90
21184;DHT22;18176;49.502;11.754;2023-07-13T16:22:08;28.40;56.90
21184;DHT22;18176;49.502;11.754;2023-07-13T16:26:28;28.70;56.30
21184;DHT22;18176;49.502;11.754;2023-07-13T16:30:36;28.30;56.80
21184;DHT22;18176;49.502;11.754;2023-07-13T16:34:41;28.50;56.20
21184;DHT22;18176;49.502;11.754;2023-07-13T16:38:43;28.50;56.20
21184;DHT22;18176;49.502;11.754;2023-07-13T16:42:44;28.20;56.40
21184;DHT22;18176;49.502;11.754;2023-07-13T16:46:44;27.90;56.40
21184;DHT22;18176;49.502;11.754;2023-07-13T16:50:52;27.70;56.60
21184;DHT22;18176;49.502;11.754;2023-07-13T16:54:54;27.50;58.40
21184;DHT22;18176;49.502;11.754;2023-07-13T16:58:55;27.10;58.20
21184;DHT22;18176;49.502;11.754;2023-07-13T17:02:56;27.10;58.10
21184;DHT22;18176;49.502;11.754;2023-07-13T17:07:01;27.60;58.20
21184;DHT22;18176;49.502;11.754;2023-07-13T17:11:02;27.80;57.10
21184;DHT22;18176;49.502;11.754;2023-07-13T17:15:03;28.00;57.60
21184;DHT22;18176;49.502;11.754;2023-07-13T17:19:11;28.40;57.00
21184;DHT22;18176;49.502;11.754;2023-07-13T17:23:16;28.40;56.40
21184;DHT22;18176;49.502;11.754;2023-07-13T17:27:18;27.60;57.00
21184;DHT22;18176;49.502;11.754;2023-07-13T17:31:20;27.10;57.70
21184;DHT22;18176;49.502;11.754;2023-07-13T17:35:26;27.60;57.30
21184;DHT22;18176;49.502;11.754;2023-07-13T17:39:30;26.80;58.30
21184;DHT22;18176;49.502;11.754;2023-07-13T17:43:31;26.40;58.60
21184;DHT22;18176;49.502;11.754;2023-07-13T17:47:31;26.40;58.90
21184;DHT22;18176;49.502;11.754;2023-07-13T17:51:32;26.40;58.30
21184;DHT22;18176;49.502;11.754;2023-07-13T17:55:37;25.80;59.70
21184;DHT22;18176;49.502;11.754;2023-07-13T17:59:37;25.60;60.00
21184;DHT22;18176;49.502;11.754;2023-07-13T18:03:41;25.50;61.00
21184;DHT22;18176;49.502;11.754;2023-07-13T18:07:46;25.40;62.00
21184;DHT22;18176;49.502;11.754;2023-07-13T18:11:49;25.20;62.20
21184;DHT22;18176;49.502;11.754;2023-07-13T18:15:50;25.20;62.90
21184;DHT22;18176;49.502;11.754;2023-07-13T18:19:51;24.80;63.70
21184;DHT22;18176;49.502;11.754;2023-07-13T18:23:52;24.40;64.30
21184;DHT22;18176;49.502;11.754;2023-07-13T18:27:56;24.10;65.30
21184;DHT22;18176;49.502;11.754;2023-07-13T18:31:57;24.00;66.50
21184;DHT22;18176;49.502;11.754;2023-07-13T18:36:02;23.80;66.30
21184;DHT22;18176;49.502;11.754;2023-07-13T18:40:09;23.70;67.50
21184;DHT22;18176;49.502;11.754;2023-07-13T18:44:16;23.50;67.70
21184;DHT22;18176;49.502;11.754;2023-07-13T18:48:22;23.20;68.60
21184;DHT22;18176;49.502;11.754;2023-07-13T18:52:27;22.90;69.90
21184;DHT22;18176;49.502;11.754;2023-07-13T18:56:28;22.80;71.40
21184;DHT22;18176;49.502;11.754;2023-07-13T19:00:31;22.60;73.30
21184;DHT22;18176;49.502;11.754;2023-07-13T19:04:32;22.40;75.80
21184;DHT22;18176;49.502;11.754;2023-07-13T19:08:33;22.10;76.80
21184;DHT22;18176;49.502;11.754;2023-07-13T19:12:33;21.90;78.50
21184;DHT22;18176;49.502;11.754;2023-07-13T19:16:38;21.60;80.00
21184;DHT22;18176;49.502;11.754;2023-07-13T19:20:40;21.30;81.40
21184;DHT22;18176;49.502;11.754;2023-07-13T20:35:01;19.10;93.10
21184;DHT22;18176;49.502;11.754;2023-07-13T20:39:02;19.20;93.80
21184;DHT22;18176;49.502;11.754;2023-07-13T20:43:02;19.20;94.20
21184;DHT22;18176;49.502;11.754;2023-07-13T20:47:03;19.30;94.30
21184;DHT22;18176;49.502;11.754;2023-07-13T20:51:09;19.40;94.00
21184;DHT22;18176;49.502;11.754;2023-07-13T20:55:13;19.30;94.00
21184;DHT22;18176;49.502;11.754;2023-07-13T20:59:15;19.20;94.20
21184;DHT22;18176;49.502;11.754;2023-07-13T21:03:19;19.10;94.30
21184;DHT22;18176;49.502;11.754;2023-07-13T21:07:24;18.90;94.70
21184;DHT22;18176;49.502;11.754;2023-07-13T21:11:25;18.80;94.90
21184;DHT22;18176;49.502;11.754;2023-07-13T21:15:29;18.70;95.30
21184;DHT22;18176;49.502;11.754;2023-07-13T21:19:31;18.50;95.30
21184;DHT22;18176;49.502;11.754;2023-07-13T21:23:35;18.40;96.20
21184;DHT22;18176;49.502;11.754;2023-07-13T21:27:36;18.30;96.20
21184;DHT22;18176;49.502;11.754;2023-07-13T21:31:36;18.20;96.60
21184;DHT22;18176;49.502;11.754;2023-07-13T21:35:39;18.20;96.90
21184;DHT22;18176;49.502;11.754;2023-07-13T21:39:44;18.00;97.30
21184;DHT22;18176;49.502;11.754;2023-07-13T21:43:48;17.90;98.00
21184;DHT22;18176;49.502;11.754;2023-07-13T21:47:49;17.80;99.10
21184;DHT22;18176;49.502;11.754;2023-07-13T21:51:50;17.70;99.20
21184;DHT22;18176;49.502;11.754;2023-07-13T21:55:56;17.60;99.80
21184;DHT22;18176;49.502;11.754;2023-07-13T21:59:57;17.50;99.90
21184;DHT22;18176;49.502;11.754;2023-07-13T22:04:13;17.50;99.90
21184;DHT22;18176;49.502;11.754;2023-07-13T22:08:15;17.40;99.90
21184;DHT22;18176;49.502;11.754;2023-07-13T22:12:19;17.30;99.90
21184;DHT22;18176;49.502;11.754;2023-07-13T22:16:21;17.20;99.90
21184;DHT22;18176;49.502;11.754;2023-07-13T22:20:24;17.00;99.90
21184;DHT22;18176;49.502;11.754;2023-07-13T22:24:25;16.90;99.90
21184;DHT22;18176;49.502;11.754;2023-07-13T22:28:29;16.70;99.90
21184;DHT22;18176;49.502;11.754;2023-07-13T22:32:29;16.70;99.90
21184;DHT22;18176;49.502;11.754;2023-07-13T22:36:29;16.60;99.90
21184;DHT22;18176;49.502;11.754;2023-07-13T22:40:30;16.40;99.90
21184;DHT22;18176;49.502;11.754;2023-07-13T22:44:33;16.40;99.90
21184;DHT22;18176;49.502;11.754;2023-07-13T22:48:38;16.30;99.90
21184;DHT22;18176;49.502;11.754;2023-07-13T22:52:40;16.20;99.90
21184;DHT22;18176;49.502;11.754;2023-07-13T22:56:40;16.10;99.90
21184;DHT22;18176;49.502;11.754;2023-07-13T23:00:43;16.10;99.90
21184;DHT22;18176;49.502;11.754;2023-07-13T23:04:44;16.10;99.90
21184;DHT22;18176;49.502;11.754;2023-07-13T23:08:46;16.00;99.90
21184;DHT22;18176;49.502;11.754;2023-07-13T23:12:48;16.00;99.90
21184;DHT22;18176;49.502;11.754;2023-07-13T23:16:50;15.90;99.90
21184;DHT22;18176;49.502;11.754;2023-07-13T23:20:51;15.90;99.90
21184;DHT22;18176;49.502;11.754;2023-07-13T23:24:51;15.80;99.90
21184;DHT22;18176;49.502;11.754;2023-07-13T23:28:52;15.90;99.90
21184;DHT22;18176;49.502;11.754;2023-07-13T23:32:59;15.90;99.90
21184;DHT22;18176;49.502;11.754;2023-07-13T23:37:02;15.80;99.90
21184;DHT22;18176;49.502;11.754;2023-07-13T23:41:12;15.80;99.90
21184;DHT22;18176;49.502;11.754;2023-07-13T23:45:14;15.70;99.90
21184;DHT22;18176;49.502;11.754;2023-07-13T23:49:20;15.80;99.90
21184;DHT22;18176;49.502;11.754;2023-07-13T23:53:22;15.70;99.90
21184;DHT22;18176;49.502;11.754;2023-07-13T23:57:25;15.60;99.90
